Broadmoor, Illinois
Current Conditions -  °F | °C
As of 5:55 PM on Friday 28 Nov 2014 (Local Time) from KC75 Reporting Station
Clear Clear  
Wind Chill: -2°   Ceiling: Unl
Heat Index:   Visibility: 10mi
Dew Point: -1°   Wind: 8mph
Humidity: 82%   Direction: 180°S
Pressure: 29.94"   Gusts: NA
Location:  41.1472°N, 89.6399°W
Report Text: KC75 282355Z AUTO 18007KT 10SM CLR 02/M01 A2994 RMK AO2 T00151013 10025 20009
Loading
Personal Weather Stations






























Interactive Weather Map New forecast layout! Learn more

10-Day Weather Forecast

Advertisements
Track Severe Weather on mobile